Time;durP1;ratioP1;P1;durP2;ratioP2;P2;SDS_P1;SDS_P2;PMS_P1;PMS_P2;Temp;Humidity;BMP_temperature;BMP_pressure;BME280_temperature;BME280_humidity;BME280_pressure;Samples;Min_cycle;Max_cycle;Signal;HPM_P1;HPM_P2
2024/02/15 00:00:12;;;;;;;22.30;11.07;;;6.00;99.90;;;;;;5082139;28;20111;-66
2024/02/15 00:02:38;;;;;;;23.70;11.55;;;6.10;99.90;;;;;;5081782;28;20523;-66
2024/02/15 00:05:04;;;;;;;23.60;11.55;;;6.20;99.90;;;;;;5081815;28;20020;-65
2024/02/15 00:07:29;;;;;;;19.85;10.05;;;6.10;99.90;;;;;;5081935;28;20012;-66
2024/02/15 00:09:55;;;;;;;17.50;8.77;;;6.20;99.90;;;;;;5079320;28;20029;-67
2024/02/15 00:12:21;;;;;;;18.30;8.13;;;6.30;99.90;;;;;;5070525;28;20024;-67
2024/02/15 00:14:46;;;;;;;12.93;7.85;;;6.40;99.90;;;;;;5081359;28;20082;-67
2024/02/15 00:17:12;;;;;;;16.33;7.22;;;6.30;99.50;;;;;;5081441;28;20036;-67
2024/02/15 00:19:41;;;;;;;13.98;6.25;;;6.40;99.10;;;;;;5081488;28;20024;-67
2024/02/15 00:22:07;;;;;;;7.43;5.07;;;;;;;;;;5081297;28;20043;-68
2024/02/15 00:24:33;;;;;;;9.75;6.18;;;6.50;97.70;;;;;;5080299;28;20025;-68
2024/02/15 00:26:58;;;;;;;12.32;6.10;;;6.40;99.90;;;;;;5081626;28;20030;-68
2024/02/15 00:29:26;;;;;;;11.95;6.18;;;6.70;99.90;;;;;;5081639;28;20204;-68
2024/02/15 00:31:51;;;;;;;11.02;6.47;;;6.90;99.90;;;;;;5074565;28;20021;-68
2024/02/15 00:34:17;;;;;;;15.52;7.65;;;6.80;96.40;;;;;;5079668;28;20450;-68
2024/02/15 00:36:46;;;;;;;16.20;8.23;;;6.80;96.00;;;;;;5081130;28;20033;-68
2024/02/15 00:39:13;;;;;;;;;;;6.80;95.70;;;;;;5081604;28;20021;-69
2024/02/15 00:41:41;;;;;;;12.25;7.10;;;6.80;99.90;;;;;;5081393;28;20108;-68
2024/02/15 00:44:10;;;;;;;12.57;6.93;;;6.80;95.90;;;;;;5081116;28;20017;-68
2024/02/15 00:46:36;;;;;;;9.98;5.13;;;6.80;96.30;;;;;;5081230;28;20063;-68
2024/02/15 00:49:02;;;;;;;8.05;5.00;;;6.60;99.90;;;;;;5080101;28;20028;-68
2024/02/15 00:51:27;;;;;;;8.32;4.97;;;6.80;99.90;;;;;;5088170;28;20362;-68
2024/02/15 00:53:53;;;;;;;9.85;5.28;;;7.00;99.90;;;;;;5101078;28;20024;-68
2024/02/15 00:56:18;;;;;;;11.93;5.65;;;6.90;99.90;;;;;;5101032;28;20035;-68
2024/02/15 00:58:44;;;;;;;12.63;6.18;;;6.80;99.90;;;;;;5101132;28;20039;-68
2024/02/15 01:01:10;;;;;;;8.45;5.28;;;6.90;99.90;;;;;;5100770;28;20079;-68
2024/02/15 01:03:36;;;;;;;10.70;5.80;;;6.70;96.90;;;;;;5099738;28;20295;-68
2024/02/15 01:06:02;;;;;;;10.63;5.15;;;6.80;99.90;;;;;;5101147;28;20028;-68
2024/02/15 01:08:28;;;;;;;7.28;4.55;;;6.70;96.70;;;;;;5094969;28;20040;-68
2024/02/15 01:10:54;;;;;;;7.68;4.72;;;6.80;99.90;;;;;;5097726;28;20220;-68
2024/02/15 01:13:20;;;;;;;7.32;5.13;;;6.70;99.90;;;;;;5101180;28;20204;-68
2024/02/15 01:15:46;;;;;;;8.07;4.32;;;6.70;96.80;;;;;;5100971;28;20024;-68
2024/02/15 01:18:12;;;;;;;8.13;4.25;;;6.70;99.90;;;;;;5100914;28;20032;-66
2024/02/15 01:20:37;;;;;;;7.22;4.28;;;6.60;99.90;;;;;;5101115;28;20057;-67
2024/02/15 01:23:05;;;;;;;7.68;4.43;;;6.60;96.70;;;;;;5100875;28;20098;-67
2024/02/15 01:25:30;;;;;;;6.63;3.92;;;6.60;96.90;;;;;;5090854;28;20016;-67
2024/02/15 01:27:56;;;;;;;7.63;3.92;;;6.60;96.80;;;;;;5100969;28;20073;-68
2024/02/15 01:30:22;;;;;;;8.27;4.03;;;6.60;96.60;;;;;;5101119;28;20096;-67
2024/02/15 01:32:47;;;;;;;9.65;4.82;;;6.60;96.50;;;;;;5100625;28;20071;-66
2024/02/15 01:35:14;;;;;;;8.68;3.67;;;6.50;99.90;;;;;;5101079;28;20056;-66
2024/02/15 01:37:40;;;;;;;9.55;4.07;;;6.60;96.00;;;;;;5099313;28;20128;-68
2024/02/15 01:40:07;;;;;;;7.90;3.85;;;6.60;95.90;;;;;;5100768;28;20008;-66
2024/02/15 01:42:33;;;;;;;7.45;3.70;;;6.70;99.90;;;;;;5095111;28;20044;-66
2024/02/15 01:44:58;;;;;;;9.95;3.85;;;6.70;99.90;;;;;;5096597;28;20024;-66
2024/02/15 01:47:24;;;;;;;7.47;3.33;;;6.60;95.30;;;;;;5100553;28;20220;-66
2024/02/15 01:49:52;;;;;;;10.13;3.70;;;6.60;95.40;;;;;;5100796;28;20044;-65
2024/02/15 01:52:18;;;;;;;13.45;5.80;;;6.70;99.90;;;;;;5100536;28;20035;-65
2024/02/15 01:54:45;;;;;;;5.50;3.92;;;6.60;99.90;;;;;;5100555;28;20032;-65
2024/02/15 01:57:11;;;;;;;7.38;3.50;;;6.60;99.90;;;;;;5100693;28;20040;-65
2024/02/15 01:59:37;;;;;;;8.63;4.05;;;6.50;99.90;;;;;;5100557;28;20016;-66
2024/02/15 02:02:04;;;;;;;7.53;3.15;;;6.50;95.50;;;;;;5100413;28;20081;-65
2024/02/15 02:04:31;;;;;;;7.70;3.25;;;6.40;95.60;;;;;;5100435;28;20275;-65
2024/02/15 02:06:58;;;;;;;6.78;3.72;;;6.30;99.90;;;;;;5100598;28;20312;-65
2024/02/15 02:09:24;;;;;;;6.75;3.53;;;6.20;99.90;;;;;;5100379;28;20024;-65
2024/02/15 02:11:50;;;;;;;6.97;3.60;;;6.20;95.80;;;;;;5100643;28;20031;-66
2024/02/15 02:14:16;;;;;;;8.15;4.40;;;5.90;99.90;;;;;;5102810;28;20028;-65
2024/02/15 02:16:42;;;;;;;8.65;3.90;;;6.10;99.90;;;;;;5104181;28;20086;-66
2024/02/15 02:19:09;;;;;;;10.40;4.07;;;6.00;96.40;;;;;;5104041;28;20112;-66
2024/02/15 02:21:35;;;;;;;6.38;3.92;;;6.00;96.60;;;;;;5104026;28;20034;-66
2024/02/15 02:24:07;;;;;;;6.30;4.03;;;5.90;99.90;;;;;;5103981;28;20572;-66
2024/02/15 02:26:36;;;;;;;6.30;3.75;;;5.90;96.80;;;;;;5104106;28;20011;-67
2024/02/15 02:29:04;;;;;;;9.90;4.32;;;5.60;99.90;;;;;;5104184;28;20028;-66
2024/02/15 02:31:34;;;;;;;7.65;3.97;;;5.60;99.90;;;;;;5104066;28;20028;-66
2024/02/15 02:34:00;;;;;;;9.10;3.35;;;5.80;99.90;;;;;;5103803;28;20370;-66
2024/02/15 02:36:26;;;;;;;6.82;3.75;;;5.70;97.40;;;;;;5103902;28;20044;-66
2024/02/15 02:38:52;;;;;;;8.18;3.88;;;5.70;97.50;;;;;;5094292;28;20095;-66
2024/02/15 02:41:19;;;;;;;8.63;3.13;;;5.70;99.90;;;;;;5103983;28;20020;-66
2024/02/15 02:43:45;;;;;;;8.23;3.80;;;5.80;97.70;;;;;;5103654;28;20488;-66
2024/02/15 02:46:11;;;;;;;6.15;4.32;;;5.80;99.90;;;;;;5103538;28;20027;-66
2024/02/15 02:48:38;;;;;;;6.47;3.80;;;5.90;99.90;;;;;;5103576;28;20347;-66
2024/02/15 02:51:04;;;;;;;5.65;3.28;;;6.00;99.90;;;;;;5103449;28;20347;-66
2024/02/15 02:53:30;;;;;;;4.88;3.42;;;5.90;99.90;;;;;;5103426;28;20031;-66
2024/02/15 02:55:58;;;;;;;8.27;3.85;;;6.00;99.90;;;;;;5103690;28;20028;-66
2024/02/15 02:58:24;;;;;;;5.57;3.30;;;6.00;99.90;;;;;;5103531;28;20061;-66
2024/02/15 03:00:51;;;;;;;6.95;3.67;;;6.10;99.90;;;;;;5103308;28;20495;-66
2024/02/15 03:03:18;;;;;;;5.72;3.58;;;6.00;97.70;;;;;;5103494;28;20028;-66
2024/02/15 03:05:44;;;;;;;7.78;3.60;;;6.10;97.60;;;;;;5103368;28;20020;-65
2024/02/15 03:08:09;;;;;;;5.30;3.60;;;6.10;99.90;;;;;;5103300;28;20026;-64
2024/02/15 03:10:35;;;;;;;7.22;3.53;;;6.30;99.90;;;;;;5103218;28;20323;-65
2024/02/15 03:13:01;;;;;;;8.23;4.07;;;6.20;97.00;;;;;;5103207;28;20094;-65
2024/02/15 03:15:26;;;;;;;7.38;3.38;;;6.50;99.90;;;;;;5103099;28;20020;-66
2024/02/15 03:17:52;;;;;;;9.20;3.63;;;6.40;99.90;;;;;;5103034;28;20052;-65
2024/02/15 03:20:21;;;;;;;8.63;4.15;;;6.50;99.90;;;;;;5103058;28;20035;-64
2024/02/15 03:22:56;;;;;;;7.55;3.97;;;6.40;96.20;;;;;;5103165;28;20023;-65
2024/02/15 03:25:25;;;;;;;6.95;3.35;;;6.40;96.40;;;;;;5102763;28;20028;-65
2024/02/15 03:27:52;;;;;;;5.53;4.38;;;6.50;99.90;;;;;;5102850;28;20020;-65
2024/02/15 03:30:21;;;;;;;9.57;5.75;;;6.40;99.90;;;;;;5103064;28;20063;-64
2024/02/15 03:32:53;;;;;;;6.40;4.47;;;6.40;96.70;;;;;;5102506;28;20069;-65
2024/02/15 03:35:22;;;;;;;8.02;4.85;;;6.40;96.90;;;;;;5102641;28;20024;-64
2024/02/15 03:37:50;;;;;;;7.63;3.88;;;6.40;97.00;;;;;;5102619;28;20391;-65
2024/02/15 03:40:17;;;;;;;8.77;4.25;;;6.40;97.20;;;;;;5102592;28;20032;-64
2024/02/15 03:42:43;;;;;;;8.05;4.00;;;6.50;99.90;;;;;;5102797;28;20028;-65
2024/02/15 03:45:09;;;;;;;7.85;5.03;;;6.60;98.20;;;;;;5102891;28;20031;-65
2024/02/15 03:47:36;;;;;;;10.07;4.82;;;6.40;97.50;;;;;;5102464;28;20087;-65
2024/02/15 03:50:03;;;;;;;9.48;4.90;;;6.40;97.20;;;;;;5102601;28;20045;-67
2024/02/15 03:52:29;;;;;;;8.55;5.57;;;6.40;97.40;;;;;;5102356;28;20028;-67
2024/02/15 03:54:57;;;;;;;12.75;5.72;;;6.40;97.30;;;;;;5102403;28;20346;-65
2024/02/15 03:57:23;;;;;;;17.73;7.53;;;6.40;97.40;;;;;;5102429;28;20042;-65
2024/02/15 03:59:53;;;;;;;17.58;8.80;;;6.40;97.40;;;;;;5102253;28;20054;-65
2024/02/15 04:02:23;;;;;;;17.80;9.55;;;6.50;99.90;;;;;;5101130;28;20089;-65
2024/02/15 04:04:49;;;;;;;13.90;8.15;;;6.40;97.40;;;;;;5102257;28;20070;-65
2024/02/15 04:07:16;;;;;;;16.13;8.27;;;6.40;97.40;;;;;;5102345;28;20189;-65
2024/02/15 04:09:42;;;;;;;13.95;7.47;;;6.40;99.90;;;;;;5102290;28;20092;-65
2024/02/15 04:12:08;;;;;;;12.98;8.77;;;6.40;99.90;;;;;;5102227;28;20145;-65
2024/02/15 04:14:34;;;;;;;18.85;8.57;;;6.40;99.90;;;;;;5102113;28;20020;-65
2024/02/15 04:17:01;;;;;;;9.52;4.93;;;6.30;97.60;;;;;;5101733;28;20067;-65
2024/02/15 04:19:27;;;;;;;12.05;6.28;;;6.30;97.90;;;;;;5101814;28;20271;-65
2024/02/15 04:21:55;;;;;;;12.95;6.55;;;;;;;;;;5101763;28;20027;-65
2024/02/15 04:24:21;;;;;;;12.65;6.20;;;6.30;98.00;;;;;;5101994;28;20103;-65
2024/02/15 04:26:48;;;;;;;11.43;5.45;;;6.40;98.30;;;;;;5101650;28;20058;-65
2024/02/15 04:29:20;;;;;;;11.32;6.25;;;6.40;98.00;;;;;;5101908;28;20084;-65
2024/02/15 04:31:49;;;;;;;10.55;4.72;;;6.40;97.60;;;;;;5101567;28;20029;-66
2024/02/15 04:34:15;;;;;;;11.25;4.70;;;6.50;99.90;;;;;;5101469;28;20119;-66
2024/02/15 04:36:42;;;;;;;8.02;4.53;;;6.40;97.00;;;;;;5100916;28;20039;-65
2024/02/15 04:39:10;;;;;;;14.90;6.10;;;6.40;99.90;;;;;;5090034;28;20024;-65
2024/02/15 04:41:38;;;;;;;9.65;5.00;;;6.30;99.90;;;;;;5101457;28;20094;-65
2024/02/15 04:44:05;;;;;;;9.77;5.55;;;6.30;96.50;;;;;;5101492;28;20374;-65
2024/02/15 04:46:31;;;;;;;12.35;5.80;;;6.40;96.70;;;;;;5101358;28;20028;-65
2024/02/15 04:48:59;;;;;;;14.55;5.45;;;6.40;96.70;;;;;;5101478;28;20327;-64
2024/02/15 04:51:27;;;;;;;9.23;5.15;;;6.40;99.90;;;;;;5101400;28;20093;-64
2024/02/15 04:53:53;;;;;;;13.63;7.82;;;6.50;99.90;;;;;;5101246;28;20212;-65
2024/02/15 04:56:20;;;;;;;16.48;7.03;;;6.40;96.60;;;;;;5101387;28;20095;-65
2024/02/15 04:58:47;;;;;;;9.85;5.72;;;6.40;96.70;;;;;;5101311;28;20111;-65
2024/02/15 05:01:16;;;;;;;12.07;5.15;;;6.30;97.20;;;;;;5101409;28;20020;-64
2024/02/15 05:03:46;;;;;;;9.55;5.43;;;6.40;97.90;;;;;;5101558;28;20020;-65
2024/02/15 05:06:12;;;;;;;9.25;5.35;;;6.40;97.80;;;;;;5101386;28;20049;-65
2024/02/15 05:08:44;;;;;;;9.18;5.80;;;6.60;99.90;;;;;;5101351;28;20091;-65
2024/02/15 05:11:19;;;;;;;9.68;6.13;;;6.50;97.90;;;;;;5101320;28;20024;-65
2024/02/15 05:13:45;;;;;;;9.93;6.80;;;6.50;97.60;;;;;;5100970;28;20032;-65
2024/02/15 05:16:11;;;;;;;12.82;6.95;;;6.70;99.90;;;;;;5100909;28;20091;-65
2024/02/15 05:18:39;;;;;;;14.82;7.00;;;6.60;97.20;;;;;;5100952;28;20316;-65
2024/02/15 05:21:09;;;;;;;12.82;7.00;;;6.60;96.80;;;;;;5100853;28;20112;-65
2024/02/15 05:23:35;;;;;;;;;;;6.60;97.10;;;;;;5101397;28;20024;-66
2024/02/15 05:26:01;;;;;;;10.70;7.05;;;6.70;97.20;;;;;;5101199;28;19908;-67
2024/02/15 05:28:26;;;;;;;13.18;7.07;;;6.80;99.90;;;;;;5101096;28;20031;-66
2024/02/15 05:31:17;;;;;;;13.88;7.68;;;6.70;96.90;;;;;;5100919;28;20016;-66
2024/02/15 05:33:47;;;;;;;13.32;8.77;;;6.70;96.70;;;;;;5100749;28;20040;-64
2024/02/15 05:36:20;;;;;;;16.42;9.43;;;6.70;96.60;;;;;;5100482;28;20024;-64
2024/02/15 05:38:47;;;;;;;18.55;9.13;;;6.80;99.80;;;;;;5100353;28;20028;-64
2024/02/15 05:41:13;;;;;;;17.23;8.52;;;6.90;99.90;;;;;;5100371;28;20012;-63
2024/02/15 05:43:41;;;;;;;14.68;8.38;;;7.60;96.40;;;;;;5100186;28;20032;-64
2024/02/15 05:46:07;;;;;;;13.48;7.65;;;6.70;99.90;;;;;;5100680;28;20023;-65
2024/02/15 05:48:36;;;;;;;9.43;5.80;;;6.80;96.30;;;;;;5102007;28;20020;-64
2024/02/15 05:51:07;;;;;;;11.15;5.95;;;6.80;99.90;;;;;;5106282;28;20024;-68
2024/02/15 05:53:38;;;;;;;11.45;5.30;;;6.80;96.30;;;;;;5106451;28;20016;-65
2024/02/15 05:56:06;;;;;;;8.80;5.00;;;6.90;99.90;;;;;;5106289;28;20279;-67
2024/02/15 05:58:32;;;;;;;11.93;4.97;;;6.80;96.70;;;;;;5106739;28;20040;-67
2024/02/15 06:01:02;;;;;;;8.60;4.65;;;6.90;99.90;;;;;;5106579;28;20016;-65
2024/02/15 06:03:29;;;;;;;9.90;5.18;;;6.80;96.60;;;;;;5104680;28;20283;-64
2024/02/15 06:05:58;;;;;;;9.75;5.00;;;6.90;96.80;;;;;;5104435;28;20258;-65
2024/02/15 06:08:24;;;;;;;;;;;6.90;96.40;;;;;;5105177;28;20012;-64
2024/02/15 06:10:50;;;;;;;17.60;6.10;;;6.90;96.50;;;;;;5104657;28;19908;-65
2024/02/15 06:13:16;;;;;;;7.80;4.88;;;6.70;99.90;;;;;;5104415;28;20145;-65
2024/02/15 06:15:41;;;;;;;14.13;6.68;;;6.90;99.90;;;;;;5104321;28;20028;-64
2024/02/15 06:18:10;;;;;;;12.75;7.07;;;7.00;96.30;;;;;;5104400;28;20043;-63
2024/02/15 06:20:36;;;;;;;11.80;6.38;;;7.20;99.90;;;;;;5104102;28;20020;-64
2024/02/15 06:23:05;;;;;;;10.20;5.55;;;7.10;99.90;;;;;;5103945;28;20043;-64
2024/02/15 06:25:32;;;;;;;9.80;5.78;;;7.00;96.20;;;;;;5104272;28;20024;-64
2024/02/15 06:28:01;;;;;;;11.25;6.25;;;7.10;99.90;;;;;;5104276;28;20036;-64
2024/02/15 06:41:35;;;;;;;27.95;12.65;;;7.20;96.40;;;;;;5083447;28;20396;-63
2024/02/15 06:44:01;;;;;;;26.48;11.20;;;7.20;96.20;;;;;;5083510;28;20028;-63
2024/02/15 06:46:27;;;;;;;20.95;10.38;;;7.20;96.00;;;;;;5083216;28;20351;-63
2024/02/15 06:48:54;;;;;;;23.92;11.68;;;7.20;95.90;;;;;;5083393;28;20091;-63
2024/02/15 06:51:20;;;;;;;23.20;11.27;;;7.20;99.90;;;;;;5083505;28;20053;-63
2024/02/15 06:53:46;;;;;;;20.90;9.70;;;7.30;95.30;;;;;;5083202;28;20252;-63
2024/02/15 06:56:13;;;;;;;27.33;13.80;;;7.40;95.00;;;;;;5083146;28;20030;-63
2024/02/15 06:58:40;;;;;;;22.90;11.27;;;7.30;94.50;;;;;;5082724;28;20071;-63
2024/02/15 07:01:06;;;;;;;24.73;10.57;;;7.50;99.90;;;;;;5083028;28;20039;-63
2024/02/15 07:03:34;;;;;;;21.20;11.20;;;7.40;94.60;;;;;;5082938;28;20024;-63
2024/02/15 07:06:00;;;;;;;24.65;10.35;;;7.40;99.90;;;;;;5083042;28;20028;-63
2024/02/15 07:08:25;;;;;;;22.35;10.93;;;7.40;94.00;;;;;;5082903;28;20095;-63
2024/02/15 07:10:51;;;;;;;21.63;11.88;;;7.40;94.20;;;;;;5082703;28;20024;-65
2024/02/15 07:13:17;;;;;;;19.45;10.77;;;7.50;94.20;;;;;;5082730;28;20024;-63
2024/02/15 07:15:44;;;;;;;24.65;13.88;;;7.50;94.00;;;;;;5082609;28;20051;-63
2024/02/15 07:18:16;;;;;;;22.88;12.13;;;7.60;93.90;;;;;;5082656;28;20100;-64
2024/02/15 07:20:41;;;;;;;21.27;11.73;;;7.60;93.80;;;;;;5082598;28;20035;-63
2024/02/15 07:23:10;;;;;;;15.98;10.35;;;7.60;93.30;;;;;;5082919;28;20021;-64
2024/02/15 07:25:36;;;;;;;19.05;10.15;;;7.80;99.90;;;;;;5082647;28;20019;-63
2024/02/15 07:28:02;;;;;;;20.77;9.80;;;7.70;93.10;;;;;;5082682;28;20096;-63
2024/02/15 07:30:27;;;;;;;19.80;10.18;;;7.80;93.00;;;;;;5081739;28;20012;-63
2024/02/15 07:32:53;;;;;;;13.95;9.35;;;7.90;93.10;;;;;;5082251;28;20044;-64
2024/02/15 07:35:19;;;;;;;19.00;11.45;;;7.90;93.00;;;;;;5082553;28;20025;-63
2024/02/15 07:37:55;;;;;;;21.15;11.25;;;8.00;92.60;;;;;;5081308;28;20040;-63
2024/02/15 07:40:27;;;;;;;18.42;11.35;;;8.10;92.70;;;;;;5081035;28;20066;-64
2024/02/15 07:42:54;;;;;;;23.55;10.90;;;8.20;92.70;;;;;;5081559;28;20020;-64
2024/02/15 07:45:20;;;;;;;19.92;11.30;;;8.30;92.60;;;;;;5082904;28;20040;-63
2024/02/15 07:47:46;;;;;;;23.58;13.90;;;8.40;92.20;;;;;;5082129;28;20304;-63
2024/02/15 07:50:19;;;;;;;28.25;16.85;;;8.60;99.90;;;;;;5082282;28;20024;-63
2024/02/15 07:52:44;;;;;;;33.90;19.33;;;8.60;91.40;;;;;;5082440;28;20032;-64
2024/02/15 07:55:10;;;;;;;24.63;14.65;;;8.80;91.10;;;;;;5082004;28;20031;-64
2024/02/15 07:57:36;;;;;;;16.73;8.93;;;8.90;90.60;;;;;;5081886;28;20405;-64
2024/02/15 08:00:05;;;;;;;23.70;12.05;;;9.00;89.10;;;;;;5081958;28;20020;-63
2024/02/15 08:02:31;;;;;;;26.70;12.20;;;9.10;88.30;;;;;;5081964;28;20028;-64
2024/02/15 08:04:56;;;;;;;18.65;10.13;;;8.60;98.70;;;;;;5081983;28;20023;-64
2024/02/15 08:07:22;;;;;;;21.65;11.10;;;9.10;88.00;;;;;;5081900;28;20593;-64
2024/02/15 08:09:50;;;;;;;20.20;10.80;;;9.10;88.40;;;;;;5081725;28;20340;-63
2024/02/15 08:12:18;;;;;;;15.20;8.07;;;9.10;87.70;;;;;;5080747;28;20064;-63
2024/02/15 08:14:44;;;;;;;13.60;7.35;;;9.10;97.50;;;;;;5081810;28;20028;-64
2024/02/15 08:17:12;;;;;;;9.80;6.30;;;9.10;85.60;;;;;;5081750;28;20504;-64
2024/02/15 08:19:41;;;;;;;14.00;8.07;;;9.20;83.60;;;;;;5081512;28;20024;-64
2024/02/15 08:22:07;;;;;;;14.60;7.65;;;9.30;80.30;;;;;;5081472;28;20058;-64
2024/02/15 08:24:33;;;;;;;13.52;6.75;;;9.30;81.60;;;;;;5081436;28;20328;-65
2024/02/15 08:26:59;;;;;;;18.27;9.13;;;9.40;81.30;;;;;;5081578;28;20066;-64
2024/02/15 08:29:25;;;;;;;15.25;7.82;;;9.50;80.30;;;;;;5081416;28;20039;-64
2024/02/15 08:31:51;;;;;;;47.67;20.58;;;9.60;79.60;;;;;;5081318;28;20024;-64
2024/02/15 08:34:18;;;;;;;25.67;10.90;;;9.70;79.00;;;;;;5081041;28;20056;-64
2024/02/15 08:36:44;;;;;;;20.90;10.38;;;9.80;78.30;;;;;;5081167;28;20028;-64
2024/02/15 08:39:11;;;;;;;26.00;11.75;;;7.30;93.10;;;;;;5080650;28;20039;-66
2024/02/15 08:41:38;;;;;;;22.15;11.43;;;10.10;77.10;;;;;;5093561;28;20338;-64
2024/02/15 08:44:11;;;;;;;31.23;11.77;;;10.20;76.00;;;;;;5101387;28;20036;-65
2024/02/15 08:46:37;;;;;;;16.42;8.50;;;10.30;75.40;;;;;;5101655;28;20096;-65
2024/02/15 08:49:03;;;;;;;12.90;7.20;;;10.30;74.90;;;;;;5101408;28;20024;-64
2024/02/15 08:51:30;;;;;;;12.30;7.10;;;10.40;74.40;;;;;;5101185;28;20044;-64
2024/02/15 08:53:56;;;;;;;11.57;6.65;;;10.50;73.90;;;;;;5099642;28;20123;-65
2024/02/15 08:56:25;;;;;;;12.77;7.13;;;10.60;73.80;;;;;;5080499;28;20369;-65
2024/02/15 08:58:50;;;;;;;16.15;7.28;;;10.70;73.10;;;;;;5080900;28;20036;-65
2024/02/15 09:01:16;;;;;;;12.75;6.53;;;10.80;72.70;;;;;;5080334;28;20094;-65
2024/02/15 09:03:45;;;;;;;16.13;8.50;;;10.90;71.60;;;;;;5079439;28;20316;-65
2024/02/15 09:06:10;;;;;;;15.15;7.07;;;11.00;71.00;;;;;;5080350;28;20020;-66
2024/02/15 09:08:36;;;;;;;11.27;6.30;;;11.10;70.80;;;;;;5080729;28;20042;-64
2024/02/15 09:11:02;;;;;;;13.63;6.65;;;11.10;70.40;;;;;;5080473;28;20059;-66
2024/02/15 09:13:27;;;;;;;15.95;5.97;;;11.20;68.90;;;;;;5080484;28;20074;-66
2024/02/15 09:15:53;;;;;;;11.38;6.82;;;11.30;69.90;;;;;;5080538;28;20035;-65
2024/02/15 09:18:18;;;;;;;16.90;8.82;;;11.30;69.20;;;;;;5080497;28;20447;-64
2024/02/15 09:20:48;;;;;;;23.60;10.98;;;11.50;89.50;;;;;;5080416;28;20343;-66
2024/02/15 09:23:14;;;;;;;21.48;12.00;;;11.50;68.60;;;;;;5080052;28;20082;-66
2024/02/15 09:25:43;;;;;;;17.55;11.50;;;11.50;68.30;;;;;;5080134;28;20320;-64
2024/02/15 09:28:09;;;;;;;;;;;11.60;68.50;;;;;;5080473;28;20020;-64
2024/02/15 09:30:35;;;;;;;18.85;11.57;;;11.60;68.70;;;;;;5078927;28;19955;-65
2024/02/15 09:33:04;;;;;;;25.95;13.75;;;11.70;68.40;;;;;;5079890;28;20564;-65
2024/02/15 09:35:31;;;;;;;18.25;11.98;;;11.70;68.20;;;;;;5079549;28;20043;-65
2024/02/15 09:37:56;;;;;;;21.20;12.63;;;11.90;68.40;;;;;;5078783;28;20103;-65
2024/02/15 09:40:26;;;;;;;20.95;11.60;;;11.90;67.60;;;;;;5080266;28;20220;-65
2024/02/15 09:42:52;;;;;;;19.88;12.20;;;12.00;67.00;;;;;;5080321;28;20205;-65
2024/02/15 09:45:20;;;;;;;18.00;11.93;;;12.00;66.80;;;;;;5080132;28;20024;-64
2024/02/15 09:47:49;;;;;;;21.13;10.55;;;12.10;66.60;;;;;;5080058;28;20031;-65
2024/02/15 09:50:17;;;;;;;15.88;11.20;;;12.20;66.00;;;;;;5080290;28;20028;-64
2024/02/15 09:52:51;;;;;;;16.55;11.15;;;12.30;66.00;;;;;;5079763;28;20623;-66
2024/02/15 09:55:18;;;;;;;17.38;10.10;;;12.30;65.80;;;;;;5079855;28;20028;-67
2024/02/15 09:57:48;;;;;;;20.27;10.75;;;12.40;65.60;;;;;;5079795;28;20047;-64
2024/02/15 10:00:15;;;;;;;21.23;10.95;;;12.40;65.30;;;;;;5080083;28;20031;-65
2024/02/15 10:02:44;;;;;;;23.58;11.07;;;12.50;65.20;;;;;;5080495;28;20050;-65
2024/02/15 10:05:11;;;;;;;23.73;13.50;;;12.70;64.50;;;;;;5079362;28;20312;-65
2024/02/15 10:07:41;;;;;;;19.17;12.25;;;12.80;64.20;;;;;;5079526;28;20040;-65
2024/02/15 10:10:25;;;;;;;18.85;11.20;;;12.90;64.40;;;;;;5079286;28;20024;-65
2024/02/15 10:12:54;;;;;;;20.52;11.82;;;13.00;63.90;;;;;;5076956;28;20344;-65
2024/02/15 10:15:38;;;;;;;;;;;13.20;63.50;;;;;;5080384;28;20028;-67
2024/02/15 10:18:10;;;;;;;15.10;10.27;;;13.40;62.60;;;;;;5079654;28;19916;-65
2024/02/15 10:20:38;;;;;;;20.90;12.25;;;13.50;62.60;;;;;;5078593;28;20032;-63
2024/02/15 10:23:18;;;;;;;18.90;11.27;;;13.60;61.20;;;;;;5079656;28;20028;-65
2024/02/15 10:25:44;;;;;;;16.55;9.57;;;13.60;61.10;;;;;;5079699;28;20021;-66
2024/02/15 10:28:20;;;;;;;17.90;10.23;;;13.60;61.00;;;;;;5079585;28;20065;-65
2024/02/15 10:30:48;;;;;;;20.80;10.38;;;13.60;61.00;;;;;;5079646;28;20076;-64
2024/02/15 10:33:30;;;;;;;14.23;9.40;;;13.70;60.90;;;;;;5079422;28;20248;-64
2024/02/15 10:36:08;;;;;;;15.85;9.65;;;13.80;59.90;;;;;;5082571;28;20021;-63
2024/02/15 10:38:35;;;;;;;12.13;7.90;;;13.90;59.80;;;;;;5076861;28;20039;-63
2024/02/15 10:41:05;;;;;;;12.75;8.20;;;13.90;59.80;;;;;;5070758;28;20221;-65
2024/02/15 10:43:37;;;;;;;9.75;6.22;;;14.00;59.30;;;;;;5063014;28;20240;-64
2024/02/15 10:46:03;;;;;;;10.48;6.53;;;13.90;59.20;;;;;;5062973;28;20337;-64
2024/02/15 10:48:29;;;;;;;8.95;6.35;;;13.70;78.30;;;;;;5069549;28;20024;-64
2024/02/15 10:50:59;;;;;;;9.52;6.45;;;13.90;58.70;;;;;;5083013;28;20070;-63
2024/02/15 10:53:27;;;;;;;11.93;6.57;;;14.00;58.20;;;;;;5083292;28;20127;-63
2024/02/15 10:55:59;;;;;;;10.43;6.47;;;14.00;58.20;;;;;;5082757;28;20052;-64
2024/02/15 10:58:31;;;;;;;14.55;7.63;;;13.90;58.00;;;;;;5083026;28;20119;-64
2024/02/15 11:00:59;;;;;;;12.40;7.50;;;13.80;58.20;;;;;;5081433;28;20053;-63
2024/02/15 11:03:36;;;;;;;11.07;7.97;;;15.10;59.30;;;;;;5083242;28;20103;-63
2024/02/15 11:06:04;;;;;;;10.55;7.13;;;13.60;58.50;;;;;;5083205;28;20261;-66
2024/02/15 11:08:32;;;;;;;12.75;7.38;;;13.60;58.90;;;;;;5082840;28;20029;-64
2024/02/15 11:10:59;;;;;;;18.90;8.75;;;13.50;59.20;;;;;;5083088;28;20028;-64
2024/02/15 11:13:25;;;;;;;12.77;7.88;;;13.50;59.30;;;;;;5083065;28;20048;-64
2024/02/15 11:15:53;;;;;;;19.92;9.48;;;13.50;59.60;;;;;;5082839;28;20083;-65
2024/02/15 11:18:51;;;;;;;10.33;6.87;;;13.60;59.60;;;;;;5082383;28;20020;-65
2024/02/15 11:21:39;;;;;;;16.17;8.60;;;13.50;58.80;;;;;;5082645;28;20044;-65
2024/02/15 11:24:28;;;;;;;17.50;9.10;;;13.60;59.00;;;;;;5082363;28;20348;-65
2024/02/15 11:27:02;;;;;;;15.15;9.65;;;13.60;59.50;;;;;;5082448;28;20023;-65
2024/02/15 11:29:54;;;;;;;16.13;8.32;;;13.60;59.30;;;;;;5082396;28;20091;-65
2024/02/15 11:32:47;;;;;;;14.43;8.57;;;13.70;59.30;;;;;;5082463;28;20021;-65
2024/02/15 11:35:28;;;;;;;11.77;7.07;;;13.80;58.80;;;;;;5081480;28;20043;-65
2024/02/15 11:38:08;;;;;;;15.10;9.18;;;13.80;59.40;;;;;;5082492;28;20091;-65
2024/02/15 11:40:41;;;;;;;13.90;7.35;;;13.90;59.30;;;;;;5082921;28;20020;-65
2024/02/15 11:43:08;;;;;;;17.02;9.65;;;14.00;59.20;;;;;;5082503;28;20038;-65
2024/02/15 11:45:37;;;;;;;18.25;10.10;;;14.00;59.50;;;;;;5082247;28;20031;-65
2024/02/15 11:48:07;;;;;;;13.15;9.32;;;14.10;58.70;;;;;;5082605;28;20027;-65
2024/02/15 11:50:36;;;;;;;16.23;9.80;;;14.20;58.80;;;;;;5082280;28;20038;-66
2024/02/15 11:53:13;;;;;;;17.52;9.55;;;14.30;58.50;;;;;;5082234;28;20040;-65
2024/02/15 11:55:40;;;;;;;18.52;9.07;;;14.40;58.30;;;;;;5082059;28;20065;-66
2024/02/15 12:19:56;;;;;;;15.38;11.25;;;14.00;59.20;;;;;;5081474;28;20023;-64
2024/02/15 12:22:21;;;;;;;20.33;13.45;;;13.80;58.50;;;;;;5081672;28;20047;-64
2024/02/15 12:24:58;;;;;;;18.95;10.95;;;13.80;59.40;;;;;;5081373;28;20021;-64
2024/02/15 12:27:27;;;;;;;19.85;12.55;;;13.70;59.70;;;;;;5081413;28;20032;-67
2024/02/15 12:29:57;;;;;;;23.98;13.68;;;13.70;59.70;;;;;;5081593;28;20081;-64
2024/02/15 12:32:25;;;;;;;18.63;11.95;;;13.60;59.90;;;;;;5081320;28;20110;-64
2024/02/15 12:34:51;;;;;;;20.25;11.55;;;13.70;60.00;;;;;;5081064;28;20048;-64
2024/02/15 12:37:23;;;;;;;16.98;11.43;;;14.10;80.70;;;;;;5081308;28;20491;-64
2024/02/15 12:39:49;;;;;;;21.70;12.30;;;13.70;59.50;;;;;;5081115;28;20431;-64
2024/02/15 12:42:17;;;;;;;20.15;12.07;;;13.80;59.50;;;;;;5081289;28;20087;-64
2024/02/15 12:44:47;;;;;;;20.58;11.98;;;13.80;59.30;;;;;;5081079;28;20329;-64
2024/02/15 12:47:24;;;;;;;18.10;12.02;;;13.80;59.40;;;;;;5082539;28;20062;-64
2024/02/15 12:49:50;;;;;;;18.08;12.05;;;13.70;59.60;;;;;;5072445;28;20021;-64
2024/02/15 12:52:38;;;;;;;22.80;12.18;;;13.50;59.70;;;;;;5061579;28;20037;-65
2024/02/15 12:55:21;;;;;;;21.20;13.63;;;13.40;59.90;;;;;;5078378;28;20074;-65
2024/02/15 12:57:51;;;;;;;22.75;14.20;;;13.30;60.20;;;;;;5080638;28;20543;-64
2024/02/15 13:00:21;;;;;;;26.30;13.13;;;13.20;60.60;;;;;;5081111;28;20115;-64
2024/02/15 13:02:49;;;;;;;17.88;12.52;;;13.30;60.90;;;;;;5081351;28;20223;-64
2024/02/15 13:05:18;;;;;;;21.13;12.80;;;13.30;60.60;;;;;;5080280;28;20012;-64
2024/02/15 13:07:46;;;;;;;17.60;11.27;;;13.30;60.80;;;;;;5061206;28;20131;-63
2024/02/15 13:10:14;;;;;;;23.92;12.60;;;13.30;60.60;;;;;;5061278;28;20075;-67
2024/02/15 13:12:41;;;;;;;15.85;11.73;;;13.30;60.40;;;;;;5061267;28;20352;-67
2024/02/15 13:15:11;;;;;;;19.25;11.85;;;13.30;60.70;;;;;;5061332;28;20021;-65
2024/02/15 13:17:37;;;;;;;21.30;13.55;;;13.30;60.70;;;;;;5061531;28;20244;-66
2024/02/15 13:20:11;;;;;;;22.75;15.27;;;13.30;60.70;;;;;;5061418;28;20078;-65
2024/02/15 13:22:38;;;;;;;23.88;13.77;;;13.20;60.40;;;;;;5060910;28;20039;-64